sensor_id;sensor_type;location;lat;lon;timestamp;P1;durP1;ratioP1;P2;durP2;ratioP2
68365;SDS011;55283;51.466;5.478;2022-08-19T00:01:37;4.50;;;4.10;;
68365;SDS011;55283;51.466;5.478;2022-08-19T00:04:05;4.40;;;4.00;;
68365;SDS011;55283;51.466;5.478;2022-08-19T00:06:34;4.53;;;4.13;;
68365;SDS011;55283;51.466;5.478;2022-08-19T00:09:01;4.32;;;3.92;;
68365;SDS011;55283;51.466;5.478;2022-08-19T00:11:27;4.55;;;4.15;;
68365;SDS011;55283;51.466;5.478;2022-08-19T00:13:56;5.40;;;4.10;;
68365;SDS011;55283;51.466;5.478;2022-08-19T00:16:22;4.70;;;4.30;;
68365;SDS011;55283;51.466;5.478;2022-08-19T00:18:49;4.90;;;4.38;;
68365;SDS011;55283;51.466;5.478;2022-08-19T00:21:15;4.67;;;3.97;;
68365;SDS011;55283;51.466;5.478;2022-08-19T00:23:41;5.55;;;4.80;;
68365;SDS011;55283;51.466;5.478;2022-08-19T00:26:08;4.60;;;4.00;;
68365;SDS011;55283;51.466;5.478;2022-08-19T00:28:34;5.57;;;4.28;;
68365;SDS011;55283;51.466;5.478;2022-08-19T00:31:01;5.00;;;4.50;;
68365;SDS011;55283;51.466;5.478;2022-08-19T00:33:27;5.13;;;4.20;;
68365;SDS011;55283;51.466;5.478;2022-08-19T00:35:56;4.68;;;4.20;;
68365;SDS011;55283;51.466;5.478;2022-08-19T00:38:21;5.18;;;4.60;;
68365;SDS011;55283;51.466;5.478;2022-08-19T00:40:47;5.40;;;4.90;;
68365;SDS011;55283;51.466;5.478;2022-08-19T00:43:14;5.20;;;4.32;;
68365;SDS011;55283;51.466;5.478;2022-08-19T00:45:44;5.45;;;4.40;;
68365;SDS011;55283;51.466;5.478;2022-08-19T00:48:10;6.20;;;4.70;;
68365;SDS011;55283;51.466;5.478;2022-08-19T00:50:35;5.30;;;4.30;;
68365;SDS011;55283;51.466;5.478;2022-08-19T00:53:01;4.77;;;4.23;;
68365;SDS011;55283;51.466;5.478;2022-08-19T00:55:29;5.07;;;4.13;;
68365;SDS011;55283;51.466;5.478;2022-08-19T00:57:59;6.10;;;4.63;;
68365;SDS011;55283;51.466;5.478;2022-08-19T01:00:29;4.93;;;4.40;;
68365;SDS011;55283;51.466;5.478;2022-08-19T01:03:00;5.38;;;4.50;;
68365;SDS011;55283;51.466;5.478;2022-08-19T01:05:30;6.45;;;4.50;;
68365;SDS011;55283;51.466;5.478;2022-08-19T01:07:56;4.77;;;4.27;;
68365;SDS011;55283;51.466;5.478;2022-08-19T01:10:26;4.70;;;4.20;;
68365;SDS011;55283;51.466;5.478;2022-08-19T01:12:54;5.70;;;4.25;;
68365;SDS011;55283;51.466;5.478;2022-08-19T01:15:27;5.00;;;4.50;;
68365;SDS011;55283;51.466;5.478;2022-08-19T01:17:57;4.97;;;4.45;;
68365;SDS011;55283;51.466;5.478;2022-08-19T01:20:31;5.47;;;4.43;;
68365;SDS011;55283;51.466;5.478;2022-08-19T01:22:59;5.07;;;4.57;;
68365;SDS011;55283;51.466;5.478;2022-08-19T01:25:29;5.20;;;4.45;;
68365;SDS011;55283;51.466;5.478;2022-08-19T01:27:58;5.07;;;4.50;;
68365;SDS011;55283;51.466;5.478;2022-08-19T01:30:25;4.97;;;4.30;;
68365;SDS011;55283;51.466;5.478;2022-08-19T01:32:53;5.40;;;4.63;;
68365;SDS011;55283;51.466;5.478;2022-08-19T01:35:19;5.47;;;4.30;;
68365;SDS011;55283;51.466;5.478;2022-08-19T01:37:52;5.78;;;4.22;;
68365;SDS011;55283;51.466;5.478;2022-08-19T01:40:21;5.40;;;4.30;;
68365;SDS011;55283;51.466;5.478;2022-08-19T01:42:48;5.90;;;4.82;;
68365;SDS011;55283;51.466;5.478;2022-08-19T01:45:15;5.20;;;4.28;;
68365;SDS011;55283;51.466;5.478;2022-08-19T01:47:41;4.53;;;4.10;;
68365;SDS011;55283;51.466;5.478;2022-08-19T01:50:10;5.45;;;4.50;;
68365;SDS011;55283;51.466;5.478;2022-08-19T01:52:37;6.07;;;4.70;;
68365;SDS011;55283;51.466;5.478;2022-08-19T01:55:04;5.13;;;4.63;;
68365;SDS011;55283;51.466;5.478;2022-08-19T01:57:30;6.47;;;4.88;;
68365;SDS011;55283;51.466;5.478;2022-08-19T01:59:56;5.40;;;4.50;;
68365;SDS011;55283;51.466;5.478;2022-08-19T02:02:22;4.72;;;4.30;;
68365;SDS011;55283;51.466;5.478;2022-08-19T02:04:48;5.83;;;4.60;;
68365;SDS011;55283;51.466;5.478;2022-08-19T02:07:13;5.70;;;4.57;;
68365;SDS011;55283;51.466;5.478;2022-08-19T02:09:39;5.30;;;4.23;;
68365;SDS011;55283;51.466;5.478;2022-08-19T02:12:05;5.13;;;4.63;;
68365;SDS011;55283;51.466;5.478;2022-08-19T02:14:33;6.50;;;4.88;;
68365;SDS011;55283;51.466;5.478;2022-08-19T02:16:59;5.20;;;4.70;;
68365;SDS011;55283;51.466;5.478;2022-08-19T02:19:25;6.73;;;4.97;;
68365;SDS011;55283;51.466;5.478;2022-08-19T02:21:50;5.23;;;4.40;;
68365;SDS011;55283;51.466;5.478;2022-08-19T02:24:16;5.97;;;4.97;;
68365;SDS011;55283;51.466;5.478;2022-08-19T02:26:41;5.75;;;4.65;;
68365;SDS011;55283;51.466;5.478;2022-08-19T02:29:07;5.30;;;4.13;;
68365;SDS011;55283;51.466;5.478;2022-08-19T02:31:32;5.35;;;4.30;;
68365;SDS011;55283;51.466;5.478;2022-08-19T02:34:02;5.90;;;4.80;;
68365;SDS011;55283;51.466;5.478;2022-08-19T02:36:27;6.15;;;4.82;;
68365;SDS011;55283;51.466;5.478;2022-08-19T02:38:53;5.47;;;4.90;;
68365;SDS011;55283;51.466;5.478;2022-08-19T02:41:21;5.55;;;4.90;;
68365;SDS011;55283;51.466;5.478;2022-08-19T02:43:48;5.38;;;4.80;;
68365;SDS011;55283;51.466;5.478;2022-08-19T02:46:21;6.47;;;4.70;;
68365;SDS011;55283;51.466;5.478;2022-08-19T02:48:56;5.32;;;4.50;;
68365;SDS011;55283;51.466;5.478;2022-08-19T02:51:24;5.60;;;4.25;;
68365;SDS011;55283;51.466;5.478;2022-08-19T02:53:54;5.80;;;4.40;;
68365;SDS011;55283;51.466;5.478;2022-08-19T02:56:20;5.22;;;4.72;;
68365;SDS011;55283;51.466;5.478;2022-08-19T02:58:46;4.80;;;4.30;;
68365;SDS011;55283;51.466;5.478;2022-08-19T03:01:29;6.05;;;5.10;;
68365;SDS011;55283;51.466;5.478;2022-08-19T03:03:57;4.93;;;4.38;;
68365;SDS011;55283;51.466;5.478;2022-08-19T03:06:25;5.40;;;4.50;;
68365;SDS011;55283;51.466;5.478;2022-08-19T03:08:51;4.80;;;4.30;;
68365;SDS011;55283;51.466;5.478;2022-08-19T03:11:24;5.20;;;4.70;;
68365;SDS011;55283;51.466;5.478;2022-08-19T03:13:56;6.50;;;4.88;;
68365;SDS011;55283;51.466;5.478;2022-08-19T03:16:25;6.13;;;4.70;;
68365;SDS011;55283;51.466;5.478;2022-08-19T03:18:51;6.73;;;4.73;;
68365;SDS011;55283;51.466;5.478;2022-08-19T03:21:19;4.93;;;4.43;;
68365;SDS011;55283;51.466;5.478;2022-08-19T03:23:47;5.07;;;4.45;;
68365;SDS011;55283;51.466;5.478;2022-08-19T03:26:12;6.67;;;5.00;;
68365;SDS011;55283;51.466;5.478;2022-08-19T03:28:40;5.18;;;4.60;;
68365;SDS011;55283;51.466;5.478;2022-08-19T03:31:10;6.57;;;4.90;;
68365;SDS011;55283;51.466;5.478;2022-08-19T03:33:38;6.50;;;5.37;;
68365;SDS011;55283;51.466;5.478;2022-08-19T03:38:37;7.13;;;5.55;;
68365;SDS011;55283;51.466;5.478;2022-08-19T03:41:17;6.43;;;5.63;;
68365;SDS011;55283;51.466;5.478;2022-08-19T03:43:44;6.70;;;5.40;;
68365;SDS011;55283;51.466;5.478;2022-08-19T03:46:16;5.93;;;5.32;;
68365;SDS011;55283;51.466;5.478;2022-08-19T03:48:46;7.18;;;5.60;;
68365;SDS011;55283;51.466;5.478;2022-08-19T03:51:21;5.73;;;5.10;;
68365;SDS011;55283;51.466;5.478;2022-08-19T03:53:53;5.57;;;5.00;;
68365;SDS011;55283;51.466;5.478;2022-08-19T03:56:20;5.70;;;5.10;;
68365;SDS011;55283;51.466;5.478;2022-08-19T03:58:51;5.93;;;5.33;;
68365;SDS011;55283;51.466;5.478;2022-08-19T04:01:20;6.68;;;5.82;;
68365;SDS011;55283;51.466;5.478;2022-08-19T04:03:47;7.53;;;6.10;;
68365;SDS011;55283;51.466;5.478;2022-08-19T04:06:17;6.13;;;5.53;;
68365;SDS011;55283;51.466;5.478;2022-08-19T04:08:46;7.37;;;6.07;;
68365;SDS011;55283;51.466;5.478;2022-08-19T04:11:13;7.82;;;6.20;;
68365;SDS011;55283;51.466;5.478;2022-08-19T04:13:47;6.75;;;6.05;;
68365;SDS011;55283;51.466;5.478;2022-08-19T04:16:14;7.10;;;6.10;;
68365;SDS011;55283;51.466;5.478;2022-08-19T04:18:42;8.20;;;6.95;;
68365;SDS011;55283;51.466;5.478;2022-08-19T04:21:07;7.43;;;6.37;;
68365;SDS011;55283;51.466;5.478;2022-08-19T04:23:40;8.80;;;6.60;;
68365;SDS011;55283;51.466;5.478;2022-08-19T04:26:05;8.00;;;6.70;;
68365;SDS011;55283;51.466;5.478;2022-08-19T04:28:31;8.40;;;7.13;;
68365;SDS011;55283;51.466;5.478;2022-08-19T04:31:00;8.25;;;7.00;;
68365;SDS011;55283;51.466;5.478;2022-08-19T04:33:26;8.43;;;6.70;;
68365;SDS011;55283;51.466;5.478;2022-08-19T04:35:53;9.75;;;7.50;;
68365;SDS011;55283;51.466;5.478;2022-08-19T04:38:19;9.33;;;7.73;;
68365;SDS011;55283;51.466;5.478;2022-08-19T04:40:50;9.60;;;7.70;;
68365;SDS011;55283;51.466;5.478;2022-08-19T04:43:37;9.23;;;7.70;;
68365;SDS011;55283;51.466;5.478;2022-08-19T04:46:04;9.82;;;7.07;;
68365;SDS011;55283;51.466;5.478;2022-08-19T04:48:35;10.57;;;8.03;;
68365;SDS011;55283;51.466;5.478;2022-08-19T04:51:08;10.77;;;8.15;;
68365;SDS011;55283;51.466;5.478;2022-08-19T04:53:36;11.52;;;8.52;;
68365;SDS011;55283;51.466;5.478;2022-08-19T04:56:08;10.47;;;7.33;;
68365;SDS011;55283;51.466;5.478;2022-08-19T04:58:39;9.18;;;7.80;;
68365;SDS011;55283;51.466;5.478;2022-08-19T05:01:11;9.13;;;7.60;;
68365;SDS011;55283;51.466;5.478;2022-08-19T05:03:42;11.17;;;8.23;;
68365;SDS011;55283;51.466;5.478;2022-08-19T05:06:10;12.35;;;7.63;;
68365;SDS011;55283;51.466;5.478;2022-08-19T05:08:40;8.07;;;6.53;;
68365;SDS011;55283;51.466;5.478;2022-08-19T05:11:09;7.57;;;6.35;;
68365;SDS011;55283;51.466;5.478;2022-08-19T05:13:40;7.05;;;6.15;;
68365;SDS011;55283;51.466;5.478;2022-08-19T05:16:06;9.97;;;6.30;;
68365;SDS011;55283;51.466;5.478;2022-08-19T05:18:31;9.10;;;6.45;;
68365;SDS011;55283;51.466;5.478;2022-08-19T05:21:17;8.43;;;6.07;;
68365;SDS011;55283;51.466;5.478;2022-08-19T05:24:03;11.00;;;6.47;;
68365;SDS011;55283;51.466;5.478;2022-08-19T05:26:34;10.80;;;6.47;;
68365;SDS011;55283;51.466;5.478;2022-08-19T05:29:01;7.80;;;6.88;;
68365;SDS011;55283;51.466;5.478;2022-08-19T05:31:28;8.83;;;6.73;;
68365;SDS011;55283;51.466;5.478;2022-08-19T05:33:56;9.35;;;6.57;;
68365;SDS011;55283;51.466;5.478;2022-08-19T05:36:23;11.07;;;6.77;;
68365;SDS011;55283;51.466;5.478;2022-08-19T05:38:52;8.80;;;6.80;;
68365;SDS011;55283;51.466;5.478;2022-08-19T05:41:18;10.10;;;7.10;;
68365;SDS011;55283;51.466;5.478;2022-08-19T05:43:44;8.93;;;7.30;;
68365;SDS011;55283;51.466;5.478;2022-08-19T05:46:13;9.93;;;6.77;;
68365;SDS011;55283;51.466;5.478;2022-08-19T05:48:43;8.57;;;6.95;;
68365;SDS011;55283;51.466;5.478;2022-08-19T05:51:08;8.07;;;6.70;;
68365;SDS011;55283;51.466;5.478;2022-08-19T05:53:34;10.87;;;7.33;;
68365;SDS011;55283;51.466;5.478;2022-08-19T05:56:04;10.27;;;7.20;;
68365;SDS011;55283;51.466;5.478;2022-08-19T05:58:31;12.13;;;6.73;;
68365;SDS011;55283;51.466;5.478;2022-08-19T06:00:57;29.77;;;20.58;;
68365;SDS011;55283;51.466;5.478;2022-08-19T06:03:23;26.70;;;18.13;;
68365;SDS011;55283;51.466;5.478;2022-08-19T06:05:49;35.25;;;25.42;;
68365;SDS011;55283;51.466;5.478;2022-08-19T06:08:14;37.33;;;26.00;;
68365;SDS011;55283;51.466;5.478;2022-08-19T06:10:39;36.50;;;25.67;;
68365;SDS011;55283;51.466;5.478;2022-08-19T06:13:05;36.50;;;26.33;;
68365;SDS011;55283;51.466;5.478;2022-08-19T06:15:33;38.20;;;26.85;;
68365;SDS011;55283;51.466;5.478;2022-08-19T06:17:58;36.70;;;26.47;;
68365;SDS011;55283;51.466;5.478;2022-08-19T06:20:26;40.65;;;27.52;;
68365;SDS011;55283;51.466;5.478;2022-08-19T06:22:51;35.53;;;24.03;;
68365;SDS011;55283;51.466;5.478;2022-08-19T06:25:17;34.97;;;25.60;;
68365;SDS011;55283;51.466;5.478;2022-08-19T06:27:43;38.40;;;25.83;;
68365;SDS011;55283;51.466;5.478;2022-08-19T06:30:09;40.03;;;27.33;;
68365;SDS011;55283;51.466;5.478;2022-08-19T06:32:36;39.10;;;25.52;;
68365;SDS011;55283;51.466;5.478;2022-08-19T06:35:01;41.33;;;26.57;;
68365;SDS011;55283;51.466;5.478;2022-08-19T06:37:27;36.58;;;25.10;;
68365;SDS011;55283;51.466;5.478;2022-08-19T06:39:53;36.93;;;25.27;;
68365;SDS011;55283;51.466;5.478;2022-08-19T06:42:18;36.53;;;23.47;;
68365;SDS011;55283;51.466;5.478;2022-08-19T06:44:45;37.70;;;25.60;;
68365;SDS011;55283;51.466;5.478;2022-08-19T06:47:13;36.10;;;24.70;;
68365;SDS011;55283;51.466;5.478;2022-08-19T06:49:41;39.53;;;25.50;;
68365;SDS011;55283;51.466;5.478;2022-08-19T06:52:07;34.30;;;22.97;;
68365;SDS011;55283;51.466;5.478;2022-08-19T06:54:33;36.25;;;22.70;;
68365;SDS011;55283;51.466;5.478;2022-08-19T06:56:59;36.53;;;23.13;;
68365;SDS011;55283;51.466;5.478;2022-08-19T06:59:29;32.20;;;21.98;;
68365;SDS011;55283;51.466;5.478;2022-08-19T07:01:57;31.75;;;21.13;;
68365;SDS011;55283;51.466;5.478;2022-08-19T07:04:26;28.50;;;19.87;;
68365;SDS011;55283;51.466;5.478;2022-08-19T07:06:56;29.17;;;19.75;;
68365;SDS011;55283;51.466;5.478;2022-08-19T07:09:26;29.58;;;19.60;;
68365;SDS011;55283;51.466;5.478;2022-08-19T07:11:52;31.27;;;21.00;;
68365;SDS011;55283;51.466;5.478;2022-08-19T07:14:20;29.15;;;19.23;;
68365;SDS011;55283;51.466;5.478;2022-08-19T07:16:50;31.27;;;19.95;;
68365;SDS011;55283;51.466;5.478;2022-08-19T07:19:20;27.40;;;18.17;;
68365;SDS011;55283;51.466;5.478;2022-08-19T07:21:48;29.07;;;17.60;;
68365;SDS011;55283;51.466;5.478;2022-08-19T07:24:18;28.58;;;17.98;;
68365;SDS011;55283;51.466;5.478;2022-08-19T07:26:44;27.50;;;17.50;;
68365;SDS011;55283;51.466;5.478;2022-08-19T07:29:11;29.07;;;18.90;;
68365;SDS011;55283;51.466;5.478;2022-08-19T07:31:40;27.60;;;16.77;;
68365;SDS011;55283;51.466;5.478;2022-08-19T07:34:06;28.30;;;19.33;;
68365;SDS011;55283;51.466;5.478;2022-08-19T07:36:34;27.63;;;17.00;;
68365;SDS011;55283;51.466;5.478;2022-08-19T07:39:03;30.50;;;18.73;;
68365;SDS011;55283;51.466;5.478;2022-08-19T07:41:36;31.60;;;20.42;;
68365;SDS011;55283;51.466;5.478;2022-08-19T07:44:02;27.33;;;17.33;;
68365;SDS011;55283;51.466;5.478;2022-08-19T07:46:31;24.42;;;16.73;;
68365;SDS011;55283;51.466;5.478;2022-08-19T07:49:01;29.25;;;17.60;;
68365;SDS011;55283;51.466;5.478;2022-08-19T07:51:27;27.17;;;17.23;;
68365;SDS011;55283;51.466;5.478;2022-08-19T07:53:53;25.90;;;16.88;;
68365;SDS011;55283;51.466;5.478;2022-08-19T07:56:19;27.58;;;16.88;;
68365;SDS011;55283;51.466;5.478;2022-08-19T07:58:46;23.43;;;16.03;;
68365;SDS011;55283;51.466;5.478;2022-08-19T08:01:15;28.23;;;15.75;;
68365;SDS011;55283;51.466;5.478;2022-08-19T08:03:43;25.60;;;17.02;;
68365;SDS011;55283;51.466;5.478;2022-08-19T08:06:27;29.65;;;18.42;;
68365;SDS011;55283;51.466;5.478;2022-08-19T08:09:11;24.53;;;16.90;;
68365;SDS011;55283;51.466;5.478;2022-08-19T08:11:43;31.38;;;19.08;;
68365;SDS011;55283;51.466;5.478;2022-08-19T08:14:34;26.27;;;17.30;;
68365;SDS011;55283;51.466;5.478;2022-08-19T08:17:05;22.60;;;14.23;;
68365;SDS011;55283;51.466;5.478;2022-08-19T08:19:33;26.90;;;15.55;;
68365;SDS011;55283;51.466;5.478;2022-08-19T08:21:59;27.48;;;16.50;;
68365;SDS011;55283;51.466;5.478;2022-08-19T08:24:27;22.80;;;15.27;;
68365;SDS011;55283;51.466;5.478;2022-08-19T08:26:55;24.50;;;16.50;;
68365;SDS011;55283;51.466;5.478;2022-08-19T08:29:24;25.58;;;17.42;;
68365;SDS011;55283;51.466;5.478;2022-08-19T08:31:52;27.98;;;17.83;;
68365;SDS011;55283;51.466;5.478;2022-08-19T08:34:18;29.97;;;21.03;;
68365;SDS011;55283;51.466;5.478;2022-08-19T08:36:44;27.55;;;19.52;;
68365;SDS011;55283;51.466;5.478;2022-08-19T08:39:12;27.48;;;20.00;;
68365;SDS011;55283;51.466;5.478;2022-08-19T08:44:15;25.92;;;18.10;;
68365;SDS011;55283;51.466;5.478;2022-08-19T08:46:49;22.83;;;16.63;;
68365;SDS011;55283;51.466;5.478;2022-08-19T08:52:24;20.77;;;15.50;;
68365;SDS011;55283;51.466;5.478;2022-08-19T08:54:54;21.67;;;16.90;;
68365;SDS011;55283;51.466;5.478;2022-08-19T08:57:37;21.40;;;15.20;;
68365;SDS011;55283;51.466;5.478;2022-08-19T09:00:24;18.50;;;15.50;;
68365;SDS011;55283;51.466;5.478;2022-08-19T09:02:53;21.75;;;17.35;;
68365;SDS011;55283;51.466;5.478;2022-08-19T09:05:22;23.45;;;17.30;;
68365;SDS011;55283;51.466;5.478;2022-08-19T09:08:08;19.47;;;15.27;;
68365;SDS011;55283;51.466;5.478;2022-08-19T09:11:00;22.42;;;16.73;;
68365;SDS011;55283;51.466;5.478;2022-08-19T09:13:42;20.23;;;16.23;;
68365;SDS011;55283;51.466;5.478;2022-08-19T09:16:25;19.10;;;14.70;;
68365;SDS011;55283;51.466;5.478;2022-08-19T09:18:55;20.00;;;15.13;;
68365;SDS011;55283;51.466;5.478;2022-08-19T09:21:29;17.27;;;13.77;;
68365;SDS011;55283;51.466;5.478;2022-08-19T09:23:57;20.55;;;15.05;;
68365;SDS011;55283;51.466;5.478;2022-08-19T09:26:23;25.10;;;16.80;;
68365;SDS011;55283;51.466;5.478;2022-08-19T09:28:50;23.10;;;16.70;;
68365;SDS011;55283;51.466;5.478;2022-08-19T09:31:24;21.67;;;16.45;;
68365;SDS011;55283;51.466;5.478;2022-08-19T09:33:52;19.20;;;15.87;;
68365;SDS011;55283;51.466;5.478;2022-08-19T09:36:22;23.40;;;17.17;;
68365;SDS011;55283;51.466;5.478;2022-08-19T09:38:56;23.90;;;17.92;;
68365;SDS011;55283;51.466;5.478;2022-08-19T09:41:23;23.60;;;17.43;;
68365;SDS011;55283;51.466;5.478;2022-08-19T09:43:50;24.90;;;17.88;;
68365;SDS011;55283;51.466;5.478;2022-08-19T09:46:17;28.42;;;18.38;;
68365;SDS011;55283;51.466;5.478;2022-08-19T09:48:45;23.02;;;17.30;;
68365;SDS011;55283;51.466;5.478;2022-08-19T09:51:22;25.77;;;17.53;;
68365;SDS011;55283;51.466;5.478;2022-08-19T09:53:51;24.65;;;17.23;;
68365;SDS011;55283;51.466;5.478;2022-08-19T09:56:21;25.00;;;16.15;;
68365;SDS011;55283;51.466;5.478;2022-08-19T09:58:47;22.73;;;16.33;;
68365;SDS011;55283;51.466;5.478;2022-08-19T10:01:19;25.45;;;17.20;;
68365;SDS011;55283;51.466;5.478;2022-08-19T10:03:50;21.52;;;15.18;;
68365;SDS011;55283;51.466;5.478;2022-08-19T10:06:18;22.97;;;14.93;;
68365;SDS011;55283;51.466;5.478;2022-08-19T10:08:46;22.15;;;14.98;;
68365;SDS011;55283;51.466;5.478;2022-08-19T10:11:12;20.98;;;15.00;;
68365;SDS011;55283;51.466;5.478;2022-08-19T10:13:41;20.52;;;15.20;;
68365;SDS011;55283;51.466;5.478;2022-08-19T10:16:08;20.97;;;14.50;;
68365;SDS011;55283;51.466;5.478;2022-08-19T10:18:36;22.02;;;14.50;;
68365;SDS011;55283;51.466;5.478;2022-08-19T10:21:08;19.95;;;13.43;;
68365;SDS011;55283;51.466;5.478;2022-08-19T10:23:45;22.50;;;13.33;;
68365;SDS011;55283;51.466;5.478;2022-08-19T10:26:14;19.77;;;13.77;;
68365;SDS011;55283;51.466;5.478;2022-08-19T10:28:47;20.83;;;14.15;;
68365;SDS011;55283;51.466;5.478;2022-08-19T10:31:20;18.20;;;12.90;;
68365;SDS011;55283;51.466;5.478;2022-08-19T10:33:48;17.77;;;12.93;;
68365;SDS011;55283;51.466;5.478;2022-08-19T10:36:17;23.42;;;12.55;;
68365;SDS011;55283;51.466;5.478;2022-08-19T10:38:44;23.33;;;14.13;;
68365;SDS011;55283;51.466;5.478;2022-08-19T10:41:13;19.03;;;12.90;;
68365;SDS011;55283;51.466;5.478;2022-08-19T10:43:43;21.38;;;13.73;;
68365;SDS011;55283;51.466;5.478;2022-08-19T10:46:10;20.42;;;13.35;;
68365;SDS011;55283;51.466;5.478;2022-08-19T10:48:38;22.23;;;13.47;;
68365;SDS011;55283;51.466;5.478;2022-08-19T10:51:03;19.25;;;13.13;;
68365;SDS011;55283;51.466;5.478;2022-08-19T10:53:48;21.77;;;13.97;;
68365;SDS011;55283;51.466;5.478;2022-08-19T10:56:14;20.60;;;13.63;;
68365;SDS011;55283;51.466;5.478;2022-08-19T10:58:58;22.02;;;13.60;;
68365;SDS011;55283;51.466;5.478;2022-08-19T11:01:27;20.03;;;12.00;;
68365;SDS011;55283;51.466;5.478;2022-08-19T11:03:56;19.67;;;13.15;;
68365;SDS011;55283;51.466;5.478;2022-08-19T11:06:22;20.23;;;13.23;;
68365;SDS011;55283;51.466;5.478;2022-08-19T11:08:50;20.90;;;14.95;;
68365;SDS011;55283;51.466;5.478;2022-08-19T11:11:19;21.63;;;14.27;;
68365;SDS011;55283;51.466;5.478;2022-08-19T11:13:47;22.80;;;16.70;;
68365;SDS011;55283;51.466;5.478;2022-08-19T11:16:19;20.65;;;14.02;;
68365;SDS011;55283;51.466;5.478;2022-08-19T11:18:57;24.53;;;16.13;;
68365;SDS011;55283;51.466;5.478;2022-08-19T11:21:32;27.38;;;18.98;;
68365;SDS011;55283;51.466;5.478;2022-08-19T11:24:02;26.65;;;18.50;;
68365;SDS011;55283;51.466;5.478;2022-08-19T11:26:31;24.73;;;17.83;;
68365;SDS011;55283;51.466;5.478;2022-08-19T11:29:00;26.70;;;19.25;;
68365;SDS011;55283;51.466;5.478;2022-08-19T11:31:29;25.88;;;18.98;;
68365;SDS011;55283;51.466;5.478;2022-08-19T11:33:56;27.10;;;19.50;;
68365;SDS011;55283;51.466;5.478;2022-08-19T11:36:28;27.47;;;18.30;;
68365;SDS011;55283;51.466;5.478;2022-08-19T11:38:53;25.42;;;18.35;;
68365;SDS011;55283;51.466;5.478;2022-08-19T11:41:20;27.87;;;20.13;;
68365;SDS011;55283;51.466;5.478;2022-08-19T11:43:50;26.65;;;19.88;;
68365;SDS011;55283;51.466;5.478;2022-08-19T11:46:19;26.15;;;18.98;;
68365;SDS011;55283;51.466;5.478;2022-08-19T11:48:45;24.88;;;17.98;;
68365;SDS011;55283;51.466;5.478;2022-08-19T11:51:20;25.57;;;16.20;;
68365;SDS011;55283;51.466;5.478;2022-08-19T11:53:49;25.45;;;17.27;;
68365;SDS011;55283;51.466;5.478;2022-08-19T11:56:16;23.67;;;17.42;;
68365;SDS011;55283;51.466;5.478;2022-08-19T11:58:42;26.50;;;19.30;;
68365;SDS011;55283;51.466;5.478;2022-08-19T12:01:11;30.50;;;21.60;;
68365;SDS011;55283;51.466;5.478;2022-08-19T12:03:42;28.55;;;19.63;;
68365;SDS011;55283;51.466;5.478;2022-08-19T12:06:10;30.33;;;20.50;;
68365;SDS011;55283;51.466;5.478;2022-08-19T12:08:38;31.85;;;21.85;;
68365;SDS011;55283;51.466;5.478;2022-08-19T12:11:05;27.48;;;20.85;;
68365;SDS011;55283;51.466;5.478;2022-08-19T12:13:36;29.50;;;18.77;;
68365;SDS011;55283;51.466;5.478;2022-08-19T12:16:10;26.40;;;18.93;;
68365;SDS011;55283;51.466;5.478;2022-08-19T12:18:39;24.05;;;17.80;;
68365;SDS011;55283;51.466;5.478;2022-08-19T12:21:12;22.15;;;16.40;;
68365;SDS011;55283;51.466;5.478;2022-08-19T12:23:42;22.20;;;16.17;;
68365;SDS011;55283;51.466;5.478;2022-08-19T12:26:11;20.95;;;16.30;;
68365;SDS011;55283;51.466;5.478;2022-08-19T12:28:37;20.53;;;15.53;;
68365;SDS011;55283;51.466;5.478;2022-08-19T12:31:02;21.63;;;15.13;;
68365;SDS011;55283;51.466;5.478;2022-08-19T12:33:28;21.37;;;14.57;;
68365;SDS011;55283;51.466;5.478;2022-08-19T12:35:54;18.63;;;14.80;;
68365;SDS011;55283;51.466;5.478;2022-08-19T12:38:24;18.80;;;15.32;;
68365;SDS011;55283;51.466;5.478;2022-08-19T12:40:50;20.10;;;15.27;;
68365;SDS011;55283;51.466;5.478;2022-08-19T12:43:16;22.63;;;17.08;;
68365;SDS011;55283;51.466;5.478;2022-08-19T12:45:43;25.57;;;18.50;;
68365;SDS011;55283;51.466;5.478;2022-08-19T12:48:11;23.05;;;16.48;;
68365;SDS011;55283;51.466;5.478;2022-08-19T12:50:40;26.17;;;18.42;;
68365;SDS011;55283;51.466;5.478;2022-08-19T12:53:10;24.53;;;17.90;;
68365;SDS011;55283;51.466;5.478;2022-08-19T12:55:35;25.23;;;17.75;;
68365;SDS011;55283;51.466;5.478;2022-08-19T12:58:01;22.67;;;16.87;;
68365;SDS011;55283;51.466;5.478;2022-08-19T13:00:26;25.33;;;17.90;;
68365;SDS011;55283;51.466;5.478;2022-08-19T13:02:52;24.70;;;18.27;;
68365;SDS011;55283;51.466;5.478;2022-08-19T13:05:18;25.17;;;17.63;;
68365;SDS011;55283;51.466;5.478;2022-08-19T13:07:48;26.20;;;16.50;;
68365;SDS011;55283;51.466;5.478;2022-08-19T13:10:17;23.13;;;16.57;;
68365;SDS011;55283;51.466;5.478;2022-08-19T13:12:47;19.85;;;14.98;;
68365;SDS011;55283;51.466;5.478;2022-08-19T13:15:15;19.65;;;14.75;;
68365;SDS011;55283;51.466;5.478;2022-08-19T13:17:44;18.17;;;13.20;;
68365;SDS011;55283;51.466;5.478;2022-08-19T13:20:12;18.70;;;12.77;;
68365;SDS011;55283;51.466;5.478;2022-08-19T13:22:38;15.20;;;11.57;;
68365;SDS011;55283;51.466;5.478;2022-08-19T13:25:06;15.20;;;10.82;;
68365;SDS011;55283;51.466;5.478;2022-08-19T13:27:32;15.73;;;11.23;;
68365;SDS011;55283;51.466;5.478;2022-08-19T13:30:00;15.70;;;10.87;;
68365;SDS011;55283;51.466;5.478;2022-08-19T13:32:50;16.65;;;11.73;;
68365;SDS011;55283;51.466;5.478;2022-08-19T13:35:34;13.25;;;10.13;;
68365;SDS011;55283;51.466;5.478;2022-08-19T13:38:06;14.80;;;10.53;;
68365;SDS011;55283;51.466;5.478;2022-08-19T13:40:34;14.43;;;10.45;;
68365;SDS011;55283;51.466;5.478;2022-08-19T13:43:01;15.10;;;9.87;;
68365;SDS011;55283;51.466;5.478;2022-08-19T13:45:28;15.50;;;10.30;;
68365;SDS011;55283;51.466;5.478;2022-08-19T13:48:01;14.57;;;10.25;;
68365;SDS011;55283;51.466;5.478;2022-08-19T13:50:32;15.23;;;9.93;;
68365;SDS011;55283;51.466;5.478;2022-08-19T13:52:59;12.63;;;9.25;;
68365;SDS011;55283;51.466;5.478;2022-08-19T13:55:25;12.93;;;9.60;;
68365;SDS011;55283;51.466;5.478;2022-08-19T13:57:52;11.82;;;9.38;;
68365;SDS011;55283;51.466;5.478;2022-08-19T14:00:20;11.90;;;9.20;;
68365;SDS011;55283;51.466;5.478;2022-08-19T14:02:50;10.85;;;8.65;;
68365;SDS011;55283;51.466;5.478;2022-08-19T14:05:16;13.02;;;8.90;;
68365;SDS011;55283;51.466;5.478;2022-08-19T14:07:43;11.60;;;8.70;;
68365;SDS011;55283;51.466;5.478;2022-08-19T14:10:10;12.15;;;8.30;;
68365;SDS011;55283;51.466;5.478;2022-08-19T14:12:37;13.67;;;9.07;;
68365;SDS011;55283;51.466;5.478;2022-08-19T14:15:03;11.15;;;8.38;;
68365;SDS011;55283;51.466;5.478;2022-08-19T14:17:30;10.88;;;8.52;;
68365;SDS011;55283;51.466;5.478;2022-08-19T14:19:59;11.10;;;8.03;;
68365;SDS011;55283;51.466;5.478;2022-08-19T14:22:31;9.95;;;7.30;;
68365;SDS011;55283;51.466;5.478;2022-08-19T14:24:57;10.20;;;7.60;;
68365;SDS011;55283;51.466;5.478;2022-08-19T14:27:23;10.13;;;7.60;;
68365;SDS011;55283;51.466;5.478;2022-08-19T14:29:50;10.47;;;7.73;;
68365;SDS011;55283;51.466;5.478;2022-08-19T14:32:15;13.57;;;8.02;;
68365;SDS011;55283;51.466;5.478;2022-08-19T14:34:41;9.33;;;7.27;;
68365;SDS011;55283;51.466;5.478;2022-08-19T14:37:06;9.23;;;7.60;;
68365;SDS011;55283;51.466;5.478;2022-08-19T14:39:32;10.23;;;7.25;;
68365;SDS011;55283;51.466;5.478;2022-08-19T14:41:58;10.63;;;8.00;;
68365;SDS011;55283;51.466;5.478;2022-08-19T14:44:24;8.33;;;7.10;;
68365;SDS011;55283;51.466;5.478;2022-08-19T14:46:52;7.43;;;6.30;;
68365;SDS011;55283;51.466;5.478;2022-08-19T14:49:18;9.35;;;6.63;;
68365;SDS011;55283;51.466;5.478;2022-08-19T14:51:46;9.00;;;6.03;;